sensor_id;sensor_type;location;lat;lon;timestamp;temperature;humidity
65582;DHT22;52231;40.090;18.348;2022-10-26T00:01:20;15.00;87.20
65582;DHT22;52231;40.090;18.348;2022-10-26T00:03:48;15.00;87.40
65582;DHT22;52231;40.090;18.348;2022-10-26T00:06:19;15.00;87.50
65582;DHT22;52231;40.090;18.348;2022-10-26T00:09:06;15.10;88.10
65582;DHT22;52231;40.090;18.348;2022-10-26T00:11:34;15.30;89.40
65582;DHT22;52231;40.090;18.348;2022-10-26T00:14:02;15.60;90.40
65582;DHT22;52231;40.090;18.348;2022-10-26T00:16:30;15.80;90.80
65582;DHT22;52231;40.090;18.348;2022-10-26T00:18:58;15.90;91.00
65582;DHT22;52231;40.090;18.348;2022-10-26T00:21:27;16.00;91.20
65582;DHT22;52231;40.090;18.348;2022-10-26T00:23:55;16.10;91.40
65582;DHT22;52231;40.090;18.348;2022-10-26T00:26:23;16.30;91.80
65582;DHT22;52231;40.090;18.348;2022-10-26T00:28:54;16.40;92.20
65582;DHT22;52231;40.090;18.348;2022-10-26T00:31:24;16.50;92.20
65582;DHT22;52231;40.090;18.348;2022-10-26T00:33:53;16.60;92.30
65582;DHT22;52231;40.090;18.348;2022-10-26T00:36:23;16.60;92.50
65582;DHT22;52231;40.090;18.348;2022-10-26T00:38:53;16.70;92.60
65582;DHT22;52231;40.090;18.348;2022-10-26T00:41:28;16.70;92.70
65582;DHT22;52231;40.090;18.348;2022-10-26T00:43:58;16.60;92.70
65582;DHT22;52231;40.090;18.348;2022-10-26T00:46:29;16.60;92.70
65582;DHT22;52231;40.090;18.348;2022-10-26T00:49:05;16.50;92.70
65582;DHT22;52231;40.090;18.348;2022-10-26T00:51:41;16.50;92.70
65582;DHT22;52231;40.090;18.348;2022-10-26T00:54:14;16.50;92.80
65582;DHT22;52231;40.090;18.348;2022-10-26T00:56:48;16.50;92.80
65582;DHT22;52231;40.090;18.348;2022-10-26T00:59:18;16.60;92.90
65582;DHT22;52231;40.090;18.348;2022-10-26T01:02:06;16.60;92.90
65582;DHT22;52231;40.090;18.348;2022-10-26T01:04:34;16.60;93.00
65582;DHT22;52231;40.090;18.348;2022-10-26T01:07:03;16.70;93.10
65582;DHT22;52231;40.090;18.348;2022-10-26T01:09:33;16.80;93.20
65582;DHT22;52231;40.090;18.348;2022-10-26T01:12:02;16.80;93.30
65582;DHT22;52231;40.090;18.348;2022-10-26T01:14:31;16.90;93.30
65582;DHT22;52231;40.090;18.348;2022-10-26T01:31:02;17.10;93.40
65582;DHT22;52231;40.090;18.348;2022-10-26T01:36:11;17.20;93.50
65582;DHT22;52231;40.090;18.348;2022-10-26T01:43:56;17.30;93.50
65582;DHT22;52231;40.090;18.348;2022-10-26T01:46:46;17.30;93.50
65582;DHT22;52231;40.090;18.348;2022-10-26T01:49:19;17.30;93.50
65582;DHT22;52231;40.090;18.348;2022-10-26T01:51:50;17.30;93.50
65582;DHT22;52231;40.090;18.348;2022-10-26T01:54:18;17.30;93.50
65582;DHT22;52231;40.090;18.348;2022-10-26T01:56:55;17.30;93.50
65582;DHT22;52231;40.090;18.348;2022-10-26T02:00:17;17.30;93.50
65582;DHT22;52231;40.090;18.348;2022-10-26T02:05:19;17.40;93.40
65582;DHT22;52231;40.090;18.348;2022-10-26T02:08:02;17.30;93.40
65582;DHT22;52231;40.090;18.348;2022-10-26T02:13:47;17.40;93.20
65582;DHT22;52231;40.090;18.348;2022-10-26T02:19:07;17.30;93.10
65582;DHT22;52231;40.090;18.348;2022-10-26T02:21:43;17.20;93.10
65582;DHT22;52231;40.090;18.348;2022-10-26T02:24:15;17.20;93.10
65582;DHT22;52231;40.090;18.348;2022-10-26T02:26:46;17.30;93.10
65582;DHT22;52231;40.090;18.348;2022-10-26T02:29:17;17.30;93.00
65582;DHT22;52231;40.090;18.348;2022-10-26T02:31:47;17.30;92.90
65582;DHT22;52231;40.090;18.348;2022-10-26T02:34:21;17.30;92.70
65582;DHT22;52231;40.090;18.348;2022-10-26T02:36:52;17.30;92.60
65582;DHT22;52231;40.090;18.348;2022-10-26T02:39:22;17.30;92.50
65582;DHT22;52231;40.090;18.348;2022-10-26T02:41:53;17.30;92.40
65582;DHT22;52231;40.090;18.348;2022-10-26T02:44:29;17.30;92.30
65582;DHT22;52231;40.090;18.348;2022-10-26T02:46:58;17.30;92.30
65582;DHT22;52231;40.090;18.348;2022-10-26T02:49:27;17.30;92.20
65582;DHT22;52231;40.090;18.348;2022-10-26T02:52:22;17.30;92.20
65582;DHT22;52231;40.090;18.348;2022-10-26T02:55:03;17.20;92.20
65582;DHT22;52231;40.090;18.348;2022-10-26T02:57:35;17.20;92.20
65582;DHT22;52231;40.090;18.348;2022-10-26T03:00:13;17.20;92.30
65582;DHT22;52231;40.090;18.348;2022-10-26T03:02:50;17.10;92.20
65582;DHT22;52231;40.090;18.348;2022-10-26T03:05:24;17.10;92.40
65582;DHT22;52231;40.090;18.348;2022-10-26T03:07:54;17.00;92.50
65582;DHT22;52231;40.090;18.348;2022-10-26T03:10:23;17.00;92.50
65582;DHT22;52231;40.090;18.348;2022-10-26T03:12:51;17.10;92.60
65582;DHT22;52231;40.090;18.348;2022-10-26T03:15:20;17.10;92.80
65582;DHT22;52231;40.090;18.348;2022-10-26T03:17:49;17.10;92.80
65582;DHT22;52231;40.090;18.348;2022-10-26T03:20:17;17.20;92.80
65582;DHT22;52231;40.090;18.348;2022-10-26T03:22:48;17.30;92.80
65582;DHT22;52231;40.090;18.348;2022-10-26T03:25:16;17.30;92.80
65582;DHT22;52231;40.090;18.348;2022-10-26T03:27:46;17.30;92.80
65582;DHT22;52231;40.090;18.348;2022-10-26T03:30:14;17.30;92.90
65582;DHT22;52231;40.090;18.348;2022-10-26T03:32:42;17.40;92.90
65582;DHT22;52231;40.090;18.348;2022-10-26T03:35:10;17.40;92.90
65582;DHT22;52231;40.090;18.348;2022-10-26T03:37:38;17.50;92.80
65582;DHT22;52231;40.090;18.348;2022-10-26T03:40:07;17.50;92.80
65582;DHT22;52231;40.090;18.348;2022-10-26T03:42:36;17.50;92.80
65582;DHT22;52231;40.090;18.348;2022-10-26T03:45:05;17.50;92.70
65582;DHT22;52231;40.090;18.348;2022-10-26T03:47:39;17.50;92.70
65582;DHT22;52231;40.090;18.348;2022-10-26T03:50:08;17.50;92.60
65582;DHT22;52231;40.090;18.348;2022-10-26T03:52:36;17.50;92.60
65582;DHT22;52231;40.090;18.348;2022-10-26T03:55:04;17.40;92.60
65582;DHT22;52231;40.090;18.348;2022-10-26T03:57:33;17.40;92.70
65582;DHT22;52231;40.090;18.348;2022-10-26T04:00:01;17.40;92.70
65582;DHT22;52231;40.090;18.348;2022-10-26T04:02:38;17.40;92.70
65582;DHT22;52231;40.090;18.348;2022-10-26T04:05:06;17.30;92.70
65582;DHT22;52231;40.090;18.348;2022-10-26T04:07:35;17.30;92.70
65582;DHT22;52231;40.090;18.348;2022-10-26T04:10:04;17.30;92.80
65582;DHT22;52231;40.090;18.348;2022-10-26T04:12:36;17.30;92.90
65582;DHT22;52231;40.090;18.348;2022-10-26T04:15:05;17.30;92.90
65582;DHT22;52231;40.090;18.348;2022-10-26T04:17:34;17.30;92.90
65582;DHT22;52231;40.090;18.348;2022-10-26T04:20:02;17.20;92.90
65582;DHT22;52231;40.090;18.348;2022-10-26T04:22:31;17.10;93.00
65582;DHT22;52231;40.090;18.348;2022-10-26T04:24:59;17.10;93.10
65582;DHT22;52231;40.090;18.348;2022-10-26T04:27:27;17.10;93.10
65582;DHT22;52231;40.090;18.348;2022-10-26T04:29:55;17.10;93.20
65582;DHT22;52231;40.090;18.348;2022-10-26T04:32:23;17.00;93.20
65582;DHT22;52231;40.090;18.348;2022-10-26T04:34:51;17.00;93.30
65582;DHT22;52231;40.090;18.348;2022-10-26T04:37:21;16.90;93.20
65582;DHT22;52231;40.090;18.348;2022-10-26T04:39:49;16.90;93.30
65582;DHT22;52231;40.090;18.348;2022-10-26T04:42:17;16.90;93.40
65582;DHT22;52231;40.090;18.348;2022-10-26T04:44:45;16.80;93.40
65582;DHT22;52231;40.090;18.348;2022-10-26T04:47:13;16.80;93.40
65582;DHT22;52231;40.090;18.348;2022-10-26T04:49:41;16.80;93.50
65582;DHT22;52231;40.090;18.348;2022-10-26T04:52:09;16.80;93.60
65582;DHT22;52231;40.090;18.348;2022-10-26T04:54:37;16.80;93.60
65582;DHT22;52231;40.090;18.348;2022-10-26T04:57:05;16.80;93.60
65582;DHT22;52231;40.090;18.348;2022-10-26T04:59:33;16.80;93.60
65582;DHT22;52231;40.090;18.348;2022-10-26T05:02:01;16.80;93.70
65582;DHT22;52231;40.090;18.348;2022-10-26T05:04:29;16.80;93.70
65582;DHT22;52231;40.090;18.348;2022-10-26T05:06:58;16.80;93.80
65582;DHT22;52231;40.090;18.348;2022-10-26T05:09:26;16.80;93.80
65582;DHT22;52231;40.090;18.348;2022-10-26T05:11:54;16.80;93.80
65582;DHT22;52231;40.090;18.348;2022-10-26T05:14:22;16.80;93.80
65582;DHT22;52231;40.090;18.348;2022-10-26T05:16:50;16.80;93.80
65582;DHT22;52231;40.090;18.348;2022-10-26T05:19:18;16.80;93.80
65582;DHT22;52231;40.090;18.348;2022-10-26T05:21:47;16.80;93.80
65582;DHT22;52231;40.090;18.348;2022-10-26T05:24:15;16.80;93.80
65582;DHT22;52231;40.090;18.348;2022-10-26T05:26:43;16.80;93.80
65582;DHT22;52231;40.090;18.348;2022-10-26T05:29:11;16.80;93.80
65582;DHT22;52231;40.090;18.348;2022-10-26T05:31:39;16.80;93.80
65582;DHT22;52231;40.090;18.348;2022-10-26T05:34:07;16.70;93.80
65582;DHT22;52231;40.090;18.348;2022-10-26T05:36:35;16.80;93.80
65582;DHT22;52231;40.090;18.348;2022-10-26T05:39:03;16.80;93.80
65582;DHT22;52231;40.090;18.348;2022-10-26T05:41:31;16.80;93.80
65582;DHT22;52231;40.090;18.348;2022-10-26T05:43:59;16.90;93.80
65582;DHT22;52231;40.090;18.348;2022-10-26T05:46:27;17.00;93.80
65582;DHT22;52231;40.090;18.348;2022-10-26T05:48:55;17.10;93.80
65582;DHT22;52231;40.090;18.348;2022-10-26T05:51:23;17.20;93.80
65582;DHT22;52231;40.090;18.348;2022-10-26T05:53:51;17.30;93.60
65582;DHT22;52231;40.090;18.348;2022-10-26T05:56:37;17.30;93.50
65582;DHT22;52231;40.090;18.348;2022-10-26T05:59:14;17.50;93.40
65582;DHT22;52231;40.090;18.348;2022-10-26T06:04:43;17.80;92.70
65582;DHT22;52231;40.090;18.348;2022-10-26T06:07:16;17.90;92.40
65582;DHT22;52231;40.090;18.348;2022-10-26T06:09:46;18.00;91.90
65582;DHT22;52231;40.090;18.348;2022-10-26T06:12:15;18.10;91.30
65582;DHT22;52231;40.090;18.348;2022-10-26T06:14:43;18.30;91.00
65582;DHT22;52231;40.090;18.348;2022-10-26T06:31:03;19.40;86.40
65582;DHT22;52231;40.090;18.348;2022-10-26T06:33:31;19.50;85.60
65582;DHT22;52231;40.090;18.348;2022-10-26T06:38:36;19.90;84.60
65582;DHT22;52231;40.090;18.348;2022-10-26T06:41:05;20.00;83.90
65582;DHT22;52231;40.090;18.348;2022-10-26T06:43:33;20.10;83.40
65582;DHT22;52231;40.090;18.348;2022-10-26T06:49:18;20.40;82.60
65582;DHT22;52231;40.090;18.348;2022-10-26T06:51:51;20.60;81.80
65582;DHT22;52231;40.090;18.348;2022-10-26T06:54:46;20.70;81.70
65582;DHT22;52231;40.090;18.348;2022-10-26T06:57:17;20.80;81.30
65582;DHT22;52231;40.090;18.348;2022-10-26T06:59:53;20.90;80.60
65582;DHT22;52231;40.090;18.348;2022-10-26T07:02:23;21.10;80.00
65582;DHT22;52231;40.090;18.348;2022-10-26T07:04:51;21.30;79.80
65582;DHT22;52231;40.090;18.348;2022-10-26T07:07:20;21.30;79.50
65582;DHT22;52231;40.090;18.348;2022-10-26T07:09:49;21.30;79.20
65582;DHT22;52231;40.090;18.348;2022-10-26T07:12:18;21.30;79.10
65582;DHT22;52231;40.090;18.348;2022-10-26T07:14:46;21.40;78.90
65582;DHT22;52231;40.090;18.348;2022-10-26T07:17:14;21.50;78.50
65582;DHT22;52231;40.090;18.348;2022-10-26T07:19:43;21.70;78.40
65582;DHT22;52231;40.090;18.348;2022-10-26T07:22:11;21.90;77.90
65582;DHT22;52231;40.090;18.348;2022-10-26T07:24:39;22.00;77.00
65582;DHT22;52231;40.090;18.348;2022-10-26T07:27:07;22.10;76.70
65582;DHT22;52231;40.090;18.348;2022-10-26T07:29:35;22.30;76.20
65582;DHT22;52231;40.090;18.348;2022-10-26T07:32:04;22.40;76.10
65582;DHT22;52231;40.090;18.348;2022-10-26T07:34:32;22.50;75.70
65582;DHT22;52231;40.090;18.348;2022-10-26T07:37:00;22.70;75.20
65582;DHT22;52231;40.090;18.348;2022-10-26T07:39:28;22.90;74.30
65582;DHT22;52231;40.090;18.348;2022-10-26T07:41:59;23.00;74.00
65582;DHT22;52231;40.090;18.348;2022-10-26T07:44:27;23.20;73.90
65582;DHT22;52231;40.090;18.348;2022-10-26T07:46:55;23.40;72.80
65582;DHT22;52231;40.090;18.348;2022-10-26T07:49:23;23.70;71.90
65582;DHT22;52231;40.090;18.348;2022-10-26T07:51:52;23.80;71.40
65582;DHT22;52231;40.090;18.348;2022-10-26T07:54:20;23.80;70.50
65582;DHT22;52231;40.090;18.348;2022-10-26T07:56:48;23.90;70.90
65582;DHT22;52231;40.090;18.348;2022-10-26T07:59:17;24.10;70.30
65582;DHT22;52231;40.090;18.348;2022-10-26T08:01:45;24.10;70.20
65582;DHT22;52231;40.090;18.348;2022-10-26T08:04:13;24.00;70.10
65582;DHT22;52231;40.090;18.348;2022-10-26T08:06:41;23.90;70.00
65582;DHT22;52231;40.090;18.348;2022-10-26T08:09:09;23.80;69.80
65582;DHT22;52231;40.090;18.348;2022-10-26T08:11:37;24.10;70.00
65582;DHT22;52231;40.090;18.348;2022-10-26T08:14:05;24.30;68.40
65582;DHT22;52231;40.090;18.348;2022-10-26T08:16:33;24.30;67.80
65582;DHT22;52231;40.090;18.348;2022-10-26T08:19:01;24.20;68.30
65582;DHT22;52231;40.090;18.348;2022-10-26T08:21:29;24.20;68.40
65582;DHT22;52231;40.090;18.348;2022-10-26T08:24:12;24.30;67.90
65582;DHT22;52231;40.090;18.348;2022-10-26T08:26:41;24.30;68.00
65582;DHT22;52231;40.090;18.348;2022-10-26T08:29:09;24.20;67.80
65582;DHT22;52231;40.090;18.348;2022-10-26T08:31:37;24.40;67.50
65582;DHT22;52231;40.090;18.348;2022-10-26T08:34:05;24.30;66.50
65582;DHT22;52231;40.090;18.348;2022-10-26T08:36:33;24.30;67.00
65582;DHT22;52231;40.090;18.348;2022-10-26T08:39:01;24.30;66.50
65582;DHT22;52231;40.090;18.348;2022-10-26T08:41:43;24.30;66.60
65582;DHT22;52231;40.090;18.348;2022-10-26T08:44:35;24.30;65.70
65582;DHT22;52231;40.090;18.348;2022-10-26T08:52:27;24.10;67.80
65582;DHT22;52231;40.090;18.348;2022-10-26T08:54:57;24.20;67.30
65582;DHT22;52231;40.090;18.348;2022-10-26T08:57:38;24.30;66.60
65582;DHT22;52231;40.090;18.348;2022-10-26T09:02:50;24.40;66.30
65582;DHT22;52231;40.090;18.348;2022-10-26T09:05:37;24.60;66.40
65582;DHT22;52231;40.090;18.348;2022-10-26T09:08:20;24.70;65.30
65582;DHT22;52231;40.090;18.348;2022-10-26T09:11:25;24.80;65.10
65582;DHT22;52231;40.090;18.348;2022-10-26T09:24:42;25.30;63.70
65582;DHT22;52231;40.090;18.348;2022-10-26T09:27:41;25.30;64.00
65582;DHT22;52231;40.090;18.348;2022-10-26T09:30:16;25.40;63.60
65582;DHT22;52231;40.090;18.348;2022-10-26T09:32:54;25.30;63.30
65582;DHT22;52231;40.090;18.348;2022-10-26T09:43:31;25.40;63.10
65582;DHT22;52231;40.090;18.348;2022-10-26T09:46:00;25.60;61.90
65582;DHT22;52231;40.090;18.348;2022-10-26T09:51:02;25.80;62.00
65582;DHT22;52231;40.090;18.348;2022-10-26T09:53:31;26.10;61.50
65582;DHT22;52231;40.090;18.348;2022-10-26T09:56:11;26.30;61.80
65582;DHT22;52231;40.090;18.348;2022-10-26T09:58:47;26.30;60.10
65582;DHT22;52231;40.090;18.348;2022-10-26T10:01:30;26.30;60.40
65582;DHT22;52231;40.090;18.348;2022-10-26T10:07:31;26.20;59.70
65582;DHT22;52231;40.090;18.348;2022-10-26T10:09:41;26.10;60.90
65582;DHT22;52231;40.090;18.348;2022-10-26T10:12:19;26.30;60.60
65582;DHT22;52231;40.090;18.348;2022-10-26T10:14:56;26.40;60.30
65582;DHT22;52231;40.090;18.348;2022-10-26T10:17:25;26.40;60.70
65582;DHT22;52231;40.090;18.348;2022-10-26T10:19:53;26.40;60.60
65582;DHT22;52231;40.090;18.348;2022-10-26T10:22:25;26.60;59.60
65582;DHT22;52231;40.090;18.348;2022-10-26T10:25:01;26.70;59.50
65582;DHT22;52231;40.090;18.348;2022-10-26T10:27:30;26.80;59.10
65582;DHT22;52231;40.090;18.348;2022-10-26T10:30:26;26.50;58.50
65582;DHT22;52231;40.090;18.348;2022-10-26T10:33:06;26.20;58.90
65582;DHT22;52231;40.090;18.348;2022-10-26T10:35:53;26.10;59.30
65582;DHT22;52231;40.090;18.348;2022-10-26T10:38:22;26.00;59.50
65582;DHT22;52231;40.090;18.348;2022-10-26T10:40:56;26.00;59.40
65582;DHT22;52231;40.090;18.348;2022-10-26T10:43:26;26.10;59.00
65582;DHT22;52231;40.090;18.348;2022-10-26T10:45:56;26.30;59.50
65582;DHT22;52231;40.090;18.348;2022-10-26T10:48:29;26.30;59.00
65582;DHT22;52231;40.090;18.348;2022-10-26T10:50:58;26.50;58.20
65582;DHT22;52231;40.090;18.348;2022-10-26T10:53:46;26.50;58.40
65582;DHT22;52231;40.090;18.348;2022-10-26T11:01:39;26.60;58.10
65582;DHT22;52231;40.090;18.348;2022-10-26T11:06:47;26.60;58.10
65582;DHT22;52231;40.090;18.348;2022-10-26T11:09:20;26.60;58.90
65582;DHT22;52231;40.090;18.348;2022-10-26T11:12:06;26.80;58.50
65582;DHT22;52231;40.090;18.348;2022-10-26T11:14:44;27.00;57.40
65582;DHT22;52231;40.090;18.348;2022-10-26T11:22:20;26.70;56.40
65582;DHT22;52231;40.090;18.348;2022-10-26T11:24:57;26.70;56.40
65582;DHT22;52231;40.090;18.348;2022-10-26T11:27:48;26.90;57.30
65582;DHT22;52231;40.090;18.348;2022-10-26T11:30:20;27.00;55.90
65582;DHT22;52231;40.090;18.348;2022-10-26T11:32:53;27.00;57.00
65582;DHT22;52231;40.090;18.348;2022-10-26T11:35:44;27.10;57.00
65582;DHT22;52231;40.090;18.348;2022-10-26T11:41:47;27.10;55.60
65582;DHT22;52231;40.090;18.348;2022-10-26T11:44:30;27.10;55.10
65582;DHT22;52231;40.090;18.348;2022-10-26T11:47:38;27.20;55.60
65582;DHT22;52231;40.090;18.348;2022-10-26T11:50:24;27.20;55.80
65582;DHT22;52231;40.090;18.348;2022-10-26T11:52:58;27.20;55.90
65582;DHT22;52231;40.090;18.348;2022-10-26T11:55:28;27.00;56.10
65582;DHT22;52231;40.090;18.348;2022-10-26T11:57:57;26.90;55.60
65582;DHT22;52231;40.090;18.348;2022-10-26T12:00:26;26.80;56.90
65582;DHT22;52231;40.090;18.348;2022-10-26T12:03:07;26.80;56.60
65582;DHT22;52231;40.090;18.348;2022-10-26T12:08:15;27.10;56.60
65582;DHT22;52231;40.090;18.348;2022-10-26T12:12:13;27.20;55.90
65582;DHT22;52231;40.090;18.348;2022-10-26T12:16:49;26.90;56.30
65582;DHT22;52231;40.090;18.348;2022-10-26T12:20:32;27.00;56.00
65582;DHT22;52231;40.090;18.348;2022-10-26T12:22:31;27.00;53.40
65582;DHT22;52231;40.090;18.348;2022-10-26T12:25:20;27.10;53.80
65582;DHT22;52231;40.090;18.348;2022-10-26T12:27:54;27.20;54.00
65582;DHT22;52231;40.090;18.348;2022-10-26T12:30:26;27.20;54.40
65582;DHT22;52231;40.090;18.348;2022-10-26T12:33:02;27.30;54.30
65582;DHT22;52231;40.090;18.348;2022-10-26T12:43:31;26.90;56.30
65582;DHT22;52231;40.090;18.348;2022-10-26T12:46:36;26.80;56.60
65582;DHT22;52231;40.090;18.348;2022-10-26T12:49:06;26.70;56.20
65582;DHT22;52231;40.090;18.348;2022-10-26T12:51:52;26.80;56.20
65582;DHT22;52231;40.090;18.348;2022-10-26T12:54:37;26.70;55.50
65582;DHT22;52231;40.090;18.348;2022-10-26T12:57:33;26.50;54.00
65582;DHT22;52231;40.090;18.348;2022-10-26T13:00:05;26.60;54.50
65582;DHT22;52231;40.090;18.348;2022-10-26T13:03:07;26.60;54.60
65582;DHT22;52231;40.090;18.348;2022-10-26T13:08:09;26.30;53.70
65582;DHT22;52231;40.090;18.348;2022-10-26T13:10:59;26.30;54.40
65582;DHT22;52231;40.090;18.348;2022-10-26T13:13:30;26.10;53.80
65582;DHT22;52231;40.090;18.348;2022-10-26T13:16:01;26.00;53.90
65582;DHT22;52231;40.090;18.348;2022-10-26T13:18:29;26.00;54.80
65582;DHT22;52231;40.090;18.348;2022-10-26T13:21:03;26.00;55.00
65582;DHT22;52231;40.090;18.348;2022-10-26T13:23:37;26.00;55.20
65582;DHT22;52231;40.090;18.348;2022-10-26T13:26:07;26.00;55.40
65582;DHT22;52231;40.090;18.348;2022-10-26T13:33:55;25.80;54.50
65582;DHT22;52231;40.090;18.348;2022-10-26T13:36:44;25.90;55.40
65582;DHT22;52231;40.090;18.348;2022-10-26T13:39:30;26.00;54.70
65582;DHT22;52231;40.090;18.348;2022-10-26T13:42:00;26.00;54.30
65582;DHT22;52231;40.090;18.348;2022-10-26T13:47:16;26.00;54.60
65582;DHT22;52231;40.090;18.348;2022-10-26T13:49:49;25.90;55.00
65582;DHT22;52231;40.090;18.348;2022-10-26T13:52:26;25.70;54.50
65582;DHT22;52231;40.090;18.348;2022-10-26T13:55:19;25.60;56.00
65582;DHT22;52231;40.090;18.348;2022-10-26T14:00:38;25.30;55.90
65582;DHT22;52231;40.090;18.348;2022-10-26T14:03:16;25.30;56.30
65582;DHT22;52231;40.090;18.348;2022-10-26T14:05:49;25.10;57.00
65582;DHT22;52231;40.090;18.348;2022-10-26T14:08:18;25.00;57.40
65582;DHT22;52231;40.090;18.348;2022-10-26T14:10:52;25.00;57.90
65582;DHT22;52231;40.090;18.348;2022-10-26T14:13:24;24.90;57.40
65582;DHT22;52231;40.090;18.348;2022-10-26T14:15:55;24.80;58.00
65582;DHT22;52231;40.090;18.348;2022-10-26T14:18:27;24.60;58.60
65582;DHT22;52231;40.090;18.348;2022-10-26T14:21:00;24.60;59.10
65582;DHT22;52231;40.090;18.348;2022-10-26T14:23:33;24.50;58.10
65582;DHT22;52231;40.090;18.348;2022-10-26T14:26:03;24.30;58.60
65582;DHT22;52231;40.090;18.348;2022-10-26T14:28:37;24.20;58.80
65582;DHT22;52231;40.090;18.348;2022-10-26T14:31:20;24.00;59.10
65582;DHT22;52231;40.090;18.348;2022-10-26T14:33:49;23.90;59.40
65582;DHT22;52231;40.090;18.348;2022-10-26T14:36:21;23.80;60.00
65582;DHT22;52231;40.090;18.348;2022-10-26T14:39:00;23.70;60.50
65582;DHT22;52231;40.090;18.348;2022-10-26T14:41:29;23.60;60.60
65582;DHT22;52231;40.090;18.348;2022-10-26T14:43:59;23.60;61.30
65582;DHT22;52231;40.090;18.348;2022-10-26T14:46:33;23.60;62.30
65582;DHT22;52231;40.090;18.348;2022-10-26T14:49:02;23.50;62.70
65582;DHT22;52231;40.090;18.348;2022-10-26T14:51:35;23.40;62.90
65582;DHT22;52231;40.090;18.348;2022-10-26T14:54:04;23.40;63.30
65582;DHT22;52231;40.090;18.348;2022-10-26T15:02:18;22.90;64.40
65582;DHT22;52231;40.090;18.348;2022-10-26T15:05:00;22.80;65.10
65582;DHT22;52231;40.090;18.348;2022-10-26T15:07:36;22.70;65.50
65582;DHT22;52231;40.090;18.348;2022-10-26T15:10:05;22.60;65.90
65582;DHT22;52231;40.090;18.348;2022-10-26T15:12:35;22.50;66.30
65582;DHT22;52231;40.090;18.348;2022-10-26T15:17:56;22.40;66.70
65582;DHT22;52231;40.090;18.348;2022-10-26T15:20:27;22.30;66.80
65582;DHT22;52231;40.090;18.348;2022-10-26T15:23:00;22.20;67.20
65582;DHT22;52231;40.090;18.348;2022-10-26T15:25:33;22.10;67.40
65582;DHT22;52231;40.090;18.348;2022-10-26T15:28:21;22.00;68.00
65582;DHT22;52231;40.090;18.348;2022-10-26T15:31:04;22.00;68.50
65582;DHT22;52231;40.090;18.348;2022-10-26T15:33:33;21.90;69.00
65582;DHT22;52231;40.090;18.348;2022-10-26T15:36:16;21.80;69.50
65582;DHT22;52231;40.090;18.348;2022-10-26T15:38:46;21.80;70.40
65582;DHT22;52231;40.090;18.348;2022-10-26T15:41:24;21.70;71.30
65582;DHT22;52231;40.090;18.348;2022-10-26T15:43:55;21.50;72.00
65582;DHT22;52231;40.090;18.348;2022-10-26T15:46:28;21.50;72.20
65582;DHT22;52231;40.090;18.348;2022-10-26T15:48:59;21.40;72.70
65582;DHT22;52231;40.090;18.348;2022-10-26T15:51:28;21.30;73.20
65582;DHT22;52231;40.090;18.348;2022-10-26T15:53:58;21.30;73.70
65582;DHT22;52231;40.090;18.348;2022-10-26T15:56:26;21.20;74.10
65582;DHT22;52231;40.090;18.348;2022-10-26T15:58:55;21.10;74.50
65582;DHT22;52231;40.090;18.348;2022-10-26T16:01:25;21.00;74.70
65582;DHT22;52231;40.090;18.348;2022-10-26T16:03:54;20.90;75.10
65582;DHT22;52231;40.090;18.348;2022-10-26T16:06:31;20.90;75.40
65582;DHT22;52231;40.090;18.348;2022-10-26T16:09:02;20.80;75.80
65582;DHT22;52231;40.090;18.348;2022-10-26T16:11:32;20.80;76.10
65582;DHT22;52231;40.090;18.348;2022-10-26T16:14:00;20.70;76.50
65582;DHT22;52231;40.090;18.348;2022-10-26T16:16:29;20.60;76.90
65582;DHT22;52231;40.090;18.348;2022-10-26T16:18:57;20.60;77.30
65582;DHT22;52231;40.090;18.348;2022-10-26T16:21:51;20.50;77.80
65582;DHT22;52231;40.090;18.348;2022-10-26T16:24:19;20.40;78.00
65582;DHT22;52231;40.090;18.348;2022-10-26T16:26:47;20.40;78.20
65582;DHT22;52231;40.090;18.348;2022-10-26T16:29:15;20.30;78.50
65582;DHT22;52231;40.090;18.348;2022-10-26T16:31:43;20.30;78.90
65582;DHT22;52231;40.090;18.348;2022-10-26T16:34:12;20.30;79.10
65582;DHT22;52231;40.090;18.348;2022-10-26T16:36:40;20.20;79.60
65582;DHT22;52231;40.090;18.348;2022-10-26T16:39:11;20.10;79.90
65582;DHT22;52231;40.090;18.348;2022-10-26T16:41:39;20.10;80.00
65582;DHT22;52231;40.090;18.348;2022-10-26T16:44:09;20.00;80.40
65582;DHT22;52231;40.090;18.348;2022-10-26T16:46:37;20.00;80.70
65582;DHT22;52231;40.090;18.348;2022-10-26T16:49:05;19.90;80.90
65582;DHT22;52231;40.090;18.348;2022-10-26T16:51:33;19.90;81.20
65582;DHT22;52231;40.090;18.348;2022-10-26T16:54:02;19.80;81.50
65582;DHT22;52231;40.090;18.348;2022-10-26T16:56:30;19.80;81.70
65582;DHT22;52231;40.090;18.348;2022-10-26T16:58:58;19.80;82.20
65582;DHT22;52231;40.090;18.348;2022-10-26T17:01:26;19.70;82.30
65582;DHT22;52231;40.090;18.348;2022-10-26T17:03:55;19.70;82.60
65582;DHT22;52231;40.090;18.348;2022-10-26T17:06:24;19.60;82.70
65582;DHT22;52231;40.090;18.348;2022-10-26T17:08:52;19.60;82.90
65582;DHT22;52231;40.090;18.348;2022-10-26T17:11:20;19.50;83.10
65582;DHT22;52231;40.090;18.348;2022-10-26T17:13:52;19.50;83.30
65582;DHT22;52231;40.090;18.348;2022-10-26T17:16:22;19.50;83.40
65582;DHT22;52231;40.090;18.348;2022-10-26T17:18:52;19.40;83.70
65582;DHT22;52231;40.090;18.348;2022-10-26T17:21:29;19.40;84.00
65582;DHT22;52231;40.090;18.348;2022-10-26T17:23:58;19.30;84.10
65582;DHT22;52231;40.090;18.348;2022-10-26T17:26:26;19.30;84.40
65582;DHT22;52231;40.090;18.348;2022-10-26T17:28:56;19.30;84.60
65582;DHT22;52231;40.090;18.348;2022-10-26T17:31:25;19.30;84.80
65582;DHT22;52231;40.090;18.348;2022-10-26T17:33:55;19.20;84.80
65582;DHT22;52231;40.090;18.348;2022-10-26T17:36:24;19.20;85.10
65582;DHT22;52231;40.090;18.348;2022-10-26T17:38:54;19.20;85.30
65582;DHT22;52231;40.090;18.348;2022-10-26T17:41:24;19.20;85.50
65582;DHT22;52231;40.090;18.348;2022-10-26T17:43:52;19.10;85.60
65582;DHT22;52231;40.090;18.348;2022-10-26T17:46:23;19.00;85.60
65582;DHT22;52231;40.090;18.348;2022-10-26T17:48:56;19.00;85.80
65582;DHT22;52231;40.090;18.348;2022-10-26T17:51:26;19.00;86.00
65582;DHT22;52231;40.090;18.348;2022-10-26T17:53:55;19.00;86.00
65582;DHT22;52231;40.090;18.348;2022-10-26T17:56:25;18.90;86.10
65582;DHT22;52231;40.090;18.348;2022-10-26T17:58:56;18.90;86.20
65582;DHT22;52231;40.090;18.348;2022-10-26T18:01:25;18.90;86.30
65582;DHT22;52231;40.090;18.348;2022-10-26T18:03:54;18.80;86.30
65582;DHT22;52231;40.090;18.348;2022-10-26T18:06:22;18.80;86.40